sensor_id;sensor_type;location;lat;lon;timestamp;P1;durP1;ratioP1;P2;durP2;ratioP2
25525;SDS011;13424;48.424;11.258;2024-03-17T00:00:37;7.47;;;4.80;;
25525;SDS011;13424;48.424;11.258;2024-03-17T00:03:06;6.82;;;4.25;;
25525;SDS011;13424;48.424;11.258;2024-03-17T00:05:35;6.78;;;4.90;;
25525;SDS011;13424;48.424;11.258;2024-03-17T00:08:03;5.35;;;4.15;;
25525;SDS011;13424;48.424;11.258;2024-03-17T00:10:34;5.85;;;4.20;;
25525;SDS011;13424;48.424;11.258;2024-03-17T00:13:00;8.10;;;4.15;;
25525;SDS011;13424;48.424;11.258;2024-03-17T00:15:26;5.25;;;4.22;;
25525;SDS011;13424;48.424;11.258;2024-03-17T00:17:53;5.00;;;4.38;;
25525;SDS011;13424;48.424;11.258;2024-03-17T00:20:19;7.15;;;4.47;;
25525;SDS011;13424;48.424;11.258;2024-03-17T00:22:49;5.82;;;4.47;;
25525;SDS011;13424;48.424;11.258;2024-03-17T00:25:17;6.13;;;4.65;;
25525;SDS011;13424;48.424;11.258;2024-03-17T00:27:43;7.13;;;4.60;;
25525;SDS011;13424;48.424;11.258;2024-03-17T00:30:11;8.18;;;4.68;;
25525;SDS011;13424;48.424;11.258;2024-03-17T00:32:39;6.75;;;4.57;;
25525;SDS011;13424;48.424;11.258;2024-03-17T00:35:06;7.22;;;4.80;;
25525;SDS011;13424;48.424;11.258;2024-03-17T00:37:38;7.28;;;4.65;;
25525;SDS011;13424;48.424;11.258;2024-03-17T00:40:04;6.82;;;4.88;;
25525;SDS011;13424;48.424;11.258;2024-03-17T00:42:31;10.13;;;5.53;;
25525;SDS011;13424;48.424;11.258;2024-03-17T00:44:58;10.45;;;6.03;;
25525;SDS011;13424;48.424;11.258;2024-03-17T00:47:28;7.25;;;5.25;;
25525;SDS011;13424;48.424;11.258;2024-03-17T00:49:54;8.52;;;5.28;;
25525;SDS011;13424;48.424;11.258;2024-03-17T00:52:20;6.50;;;5.18;;
25525;SDS011;13424;48.424;11.258;2024-03-17T00:54:46;6.90;;;5.05;;
25525;SDS011;13424;48.424;11.258;2024-03-17T00:57:14;11.60;;;5.22;;
25525;SDS011;13424;48.424;11.258;2024-03-17T00:59:43;8.90;;;6.05;;
25525;SDS011;13424;48.424;11.258;2024-03-17T01:02:11;8.55;;;5.88;;
25525;SDS011;13424;48.424;11.258;2024-03-17T01:04:39;6.20;;;5.13;;
25525;SDS011;13424;48.424;11.258;2024-03-17T01:07:05;9.15;;;6.30;;
25525;SDS011;13424;48.424;11.258;2024-03-17T01:09:31;8.63;;;6.35;;
25525;SDS011;13424;48.424;11.258;2024-03-17T01:11:59;7.55;;;4.95;;
25525;SDS011;13424;48.424;11.258;2024-03-17T01:14:25;7.57;;;5.25;;
25525;SDS011;13424;48.424;11.258;2024-03-17T01:16:51;9.38;;;5.78;;
25525;SDS011;13424;48.424;11.258;2024-03-17T01:19:17;7.50;;;5.88;;
25525;SDS011;13424;48.424;11.258;2024-03-17T01:21:43;7.10;;;5.82;;
25525;SDS011;13424;48.424;11.258;2024-03-17T01:24:09;7.43;;;5.47;;
25525;SDS011;13424;48.424;11.258;2024-03-17T01:26:35;8.50;;;5.82;;
25525;SDS011;13424;48.424;11.258;2024-03-17T01:29:01;7.95;;;5.57;;
25525;SDS011;13424;48.424;11.258;2024-03-17T01:31:28;6.82;;;5.72;;
25525;SDS011;13424;48.424;11.258;2024-03-17T01:33:54;8.88;;;5.90;;
25525;SDS011;13424;48.424;11.258;2024-03-17T01:36:21;9.40;;;6.18;;
25525;SDS011;13424;48.424;11.258;2024-03-17T01:38:47;7.25;;;5.80;;
25525;SDS011;13424;48.424;11.258;2024-03-17T01:41:13;8.82;;;6.28;;
25525;SDS011;13424;48.424;11.258;2024-03-17T01:43:39;9.77;;;7.05;;
25525;SDS011;13424;48.424;11.258;2024-03-17T01:46:06;11.07;;;6.68;;
25525;SDS011;13424;48.424;11.258;2024-03-17T01:48:39;11.75;;;7.80;;
25525;SDS011;13424;48.424;11.258;2024-03-17T01:51:05;8.52;;;6.28;;
25525;SDS011;13424;48.424;11.258;2024-03-17T01:53:35;9.15;;;6.82;;
25525;SDS011;13424;48.424;11.258;2024-03-17T01:56:04;11.30;;;7.38;;
25525;SDS011;13424;48.424;11.258;2024-03-17T01:58:33;10.68;;;7.70;;
25525;SDS011;13424;48.424;11.258;2024-03-17T02:01:01;15.57;;;7.95;;
25525;SDS011;13424;48.424;11.258;2024-03-17T02:03:29;10.85;;;6.75;;
25525;SDS011;13424;48.424;11.258;2024-03-17T02:05:58;12.15;;;6.85;;
25525;SDS011;13424;48.424;11.258;2024-03-17T02:08:25;10.00;;;6.80;;
25525;SDS011;13424;48.424;11.258;2024-03-17T02:10:55;9.43;;;6.20;;
25525;SDS011;13424;48.424;11.258;2024-03-17T02:13:21;10.68;;;6.38;;
25525;SDS011;13424;48.424;11.258;2024-03-17T02:15:48;10.18;;;6.90;;
25525;SDS011;13424;48.424;11.258;2024-03-17T02:18:14;11.40;;;7.32;;
25525;SDS011;13424;48.424;11.258;2024-03-17T02:20:40;9.30;;;6.80;;
25525;SDS011;13424;48.424;11.258;2024-03-17T02:23:23;8.20;;;6.50;;
25525;SDS011;13424;48.424;11.258;2024-03-17T02:25:53;7.97;;;6.28;;
25525;SDS011;13424;48.424;11.258;2024-03-17T02:28:19;9.27;;;6.55;;
25525;SDS011;13424;48.424;11.258;2024-03-17T02:30:45;10.65;;;6.57;;
25525;SDS011;13424;48.424;11.258;2024-03-17T02:33:12;10.77;;;7.53;;
25525;SDS011;13424;48.424;11.258;2024-03-17T02:35:38;11.40;;;6.97;;
25525;SDS011;13424;48.424;11.258;2024-03-17T02:38:04;8.93;;;6.93;;
25525;SDS011;13424;48.424;11.258;2024-03-17T02:40:30;11.63;;;7.40;;
25525;SDS011;13424;48.424;11.258;2024-03-17T02:42:57;11.95;;;7.18;;
25525;SDS011;13424;48.424;11.258;2024-03-17T02:45:23;11.13;;;7.93;;
25525;SDS011;13424;48.424;11.258;2024-03-17T02:47:51;11.07;;;7.57;;
25525;SDS011;13424;48.424;11.258;2024-03-17T02:50:17;12.63;;;8.55;;
25525;SDS011;13424;48.424;11.258;2024-03-17T02:52:43;8.23;;;6.32;;
25525;SDS011;13424;48.424;11.258;2024-03-17T02:55:09;11.35;;;6.95;;
25525;SDS011;13424;48.424;11.258;2024-03-17T02:57:35;12.18;;;7.53;;
25525;SDS011;13424;48.424;11.258;2024-03-17T03:00:01;10.68;;;7.10;;
25525;SDS011;13424;48.424;11.258;2024-03-17T03:02:30;9.82;;;7.25;;
25525;SDS011;13424;48.424;11.258;2024-03-17T03:04:55;10.73;;;7.18;;
25525;SDS011;13424;48.424;11.258;2024-03-17T03:07:21;11.70;;;7.68;;
25525;SDS011;13424;48.424;11.258;2024-03-17T03:09:48;10.77;;;6.80;;
25525;SDS011;13424;48.424;11.258;2024-03-17T03:12:14;13.77;;;7.82;;
25525;SDS011;13424;48.424;11.258;2024-03-17T03:14:40;10.02;;;7.13;;
25525;SDS011;13424;48.424;11.258;2024-03-17T03:17:06;12.70;;;7.53;;
25525;SDS011;13424;48.424;11.258;2024-03-17T03:19:34;12.20;;;6.95;;
25525;SDS011;13424;48.424;11.258;2024-03-17T03:22:00;12.70;;;8.23;;
25525;SDS011;13424;48.424;11.258;2024-03-17T03:24:26;10.50;;;6.95;;
25525;SDS011;13424;48.424;11.258;2024-03-17T03:26:51;8.48;;;6.85;;
25525;SDS011;13424;48.424;11.258;2024-03-17T03:29:17;9.32;;;7.00;;
25525;SDS011;13424;48.424;11.258;2024-03-17T03:31:44;9.73;;;6.85;;
25525;SDS011;13424;48.424;11.258;2024-03-17T03:34:10;8.30;;;6.82;;
25525;SDS011;13424;48.424;11.258;2024-03-17T03:36:38;8.52;;;6.75;;
25525;SDS011;13424;48.424;11.258;2024-03-17T03:39:04;10.98;;;8.20;;
25525;SDS011;13424;48.424;11.258;2024-03-17T03:41:30;13.93;;;7.80;;
25525;SDS011;13424;48.424;11.258;2024-03-17T03:43:58;8.77;;;6.95;;
25525;SDS011;13424;48.424;11.258;2024-03-17T03:46:24;7.75;;;5.95;;
25525;SDS011;13424;48.424;11.258;2024-03-17T03:48:51;8.27;;;6.50;;
25525;SDS011;13424;48.424;11.258;2024-03-17T03:51:17;10.57;;;6.78;;
25525;SDS011;13424;48.424;11.258;2024-03-17T03:53:44;10.35;;;7.32;;
25525;SDS011;13424;48.424;11.258;2024-03-17T03:56:10;11.18;;;7.63;;
25525;SDS011;13424;48.424;11.258;2024-03-17T03:58:37;10.63;;;7.65;;
25525;SDS011;13424;48.424;11.258;2024-03-17T04:01:08;16.13;;;7.35;;
25525;SDS011;13424;48.424;11.258;2024-03-17T04:03:46;11.00;;;7.93;;
25525;SDS011;13424;48.424;11.258;2024-03-17T04:06:13;11.55;;;7.20;;
25525;SDS011;13424;48.424;11.258;2024-03-17T04:08:43;10.88;;;7.45;;
25525;SDS011;13424;48.424;11.258;2024-03-17T04:11:09;9.85;;;8.05;;
25525;SDS011;13424;48.424;11.258;2024-03-17T04:13:36;11.70;;;6.60;;
25525;SDS011;13424;48.424;11.258;2024-03-17T04:16:06;10.35;;;7.30;;
25525;SDS011;13424;48.424;11.258;2024-03-17T04:18:34;11.20;;;7.78;;
25525;SDS011;13424;48.424;11.258;2024-03-17T04:21:04;10.38;;;8.32;;
25525;SDS011;13424;48.424;11.258;2024-03-17T04:23:34;12.05;;;7.93;;
25525;SDS011;13424;48.424;11.258;2024-03-17T04:26:01;11.00;;;8.60;;
25525;SDS011;13424;48.424;11.258;2024-03-17T04:28:28;12.48;;;8.18;;
25525;SDS011;13424;48.424;11.258;2024-03-17T04:31:05;15.73;;;9.00;;
25525;SDS011;13424;48.424;11.258;2024-03-17T04:33:32;12.35;;;8.77;;
25525;SDS011;13424;48.424;11.258;2024-03-17T04:35:59;11.18;;;8.38;;
25525;SDS011;13424;48.424;11.258;2024-03-17T04:38:27;13.18;;;9.40;;
25525;SDS011;13424;48.424;11.258;2024-03-17T04:40:54;11.70;;;7.90;;
25525;SDS011;13424;48.424;11.258;2024-03-17T04:43:32;10.57;;;8.32;;
25525;SDS011;13424;48.424;11.258;2024-03-17T04:46:00;16.90;;;9.00;;
25525;SDS011;13424;48.424;11.258;2024-03-17T04:48:31;12.65;;;8.27;;
25525;SDS011;13424;48.424;11.258;2024-03-17T04:50:59;15.10;;;8.90;;
25525;SDS011;13424;48.424;11.258;2024-03-17T04:53:26;11.25;;;8.23;;
25525;SDS011;13424;48.424;11.258;2024-03-17T04:56:03;14.15;;;7.75;;
25525;SDS011;13424;48.424;11.258;2024-03-17T04:58:31;12.93;;;7.93;;
25525;SDS011;13424;48.424;11.258;2024-03-17T05:01:06;14.13;;;9.45;;
25525;SDS011;13424;48.424;11.258;2024-03-17T05:03:33;14.68;;;9.40;;
25525;SDS011;13424;48.424;11.258;2024-03-17T05:06:00;11.45;;;7.75;;
25525;SDS011;13424;48.424;11.258;2024-03-17T05:08:29;14.05;;;7.80;;
25525;SDS011;13424;48.424;11.258;2024-03-17T05:11:02;13.90;;;8.15;;
25525;SDS011;13424;48.424;11.258;2024-03-17T05:13:33;13.27;;;8.18;;
25525;SDS011;13424;48.424;11.258;2024-03-17T05:18:30;10.30;;;8.32;;
25525;SDS011;13424;48.424;11.258;2024-03-17T05:20:58;11.90;;;7.43;;
25525;SDS011;13424;48.424;11.258;2024-03-17T05:23:28;16.33;;;8.20;;
25525;SDS011;13424;48.424;11.258;2024-03-17T05:25:59;11.93;;;7.70;;
25525;SDS011;13424;48.424;11.258;2024-03-17T05:28:27;10.13;;;8.15;;
25525;SDS011;13424;48.424;11.258;2024-03-17T05:30:54;9.93;;;7.93;;
25525;SDS011;13424;48.424;11.258;2024-03-17T05:33:22;10.45;;;7.10;;
25525;SDS011;13424;48.424;11.258;2024-03-17T05:35:54;10.95;;;7.10;;
25525;SDS011;13424;48.424;11.258;2024-03-17T05:38:23;10.13;;;7.60;;
25525;SDS011;13424;48.424;11.258;2024-03-17T05:41:05;12.02;;;7.47;;
25525;SDS011;13424;48.424;11.258;2024-03-17T05:46:05;11.90;;;7.70;;
25525;SDS011;13424;48.424;11.258;2024-03-17T05:48:40;13.98;;;7.80;;
25525;SDS011;13424;48.424;11.258;2024-03-17T05:51:07;9.73;;;7.28;;
25525;SDS011;13424;48.424;11.258;2024-03-17T05:53:38;12.40;;;7.32;;
25525;SDS011;13424;48.424;11.258;2024-03-17T05:56:11;11.85;;;8.70;;
25525;SDS011;13424;48.424;11.258;2024-03-17T05:58:38;15.75;;;10.18;;
25525;SDS011;13424;48.424;11.258;2024-03-17T06:01:05;17.05;;;11.30;;
25525;SDS011;13424;48.424;11.258;2024-03-17T06:03:35;19.55;;;12.40;;
25525;SDS011;13424;48.424;11.258;2024-03-17T06:06:02;24.60;;;14.55;;
25525;SDS011;13424;48.424;11.258;2024-03-17T06:08:30;16.65;;;11.52;;
25525;SDS011;13424;48.424;11.258;2024-03-17T06:10:56;15.02;;;10.38;;
25525;SDS011;13424;48.424;11.258;2024-03-17T06:13:23;14.95;;;11.20;;
25525;SDS011;13424;48.424;11.258;2024-03-17T06:15:50;15.20;;;11.05;;
25525;SDS011;13424;48.424;11.258;2024-03-17T06:18:15;24.45;;;14.27;;
25525;SDS011;13424;48.424;11.258;2024-03-17T06:20:44;20.52;;;11.13;;
25525;SDS011;13424;48.424;11.258;2024-03-17T06:23:11;18.05;;;10.68;;
25525;SDS011;13424;48.424;11.258;2024-03-17T06:28:14;13.55;;;9.88;;
25525;SDS011;13424;48.424;11.258;2024-03-17T06:30:47;14.70;;;9.65;;
25525;SDS011;13424;48.424;11.258;2024-03-17T06:33:24;16.67;;;8.60;;
25525;SDS011;13424;48.424;11.258;2024-03-17T06:35:51;13.23;;;9.20;;
25525;SDS011;13424;48.424;11.258;2024-03-17T06:38:17;13.43;;;8.75;;
25525;SDS011;13424;48.424;11.258;2024-03-17T06:40:50;13.98;;;9.77;;
25525;SDS011;13424;48.424;11.258;2024-03-17T06:43:17;17.20;;;10.27;;
25525;SDS011;13424;48.424;11.258;2024-03-17T06:45:59;15.73;;;10.98;;
25525;SDS011;13424;48.424;11.258;2024-03-17T06:48:27;13.52;;;9.90;;
25525;SDS011;13424;48.424;11.258;2024-03-17T06:50:54;14.38;;;9.77;;
25525;SDS011;13424;48.424;11.258;2024-03-17T06:53:21;25.38;;;13.95;;
25525;SDS011;13424;48.424;11.258;2024-03-17T06:55:53;18.02;;;11.63;;
25525;SDS011;13424;48.424;11.258;2024-03-17T06:58:23;15.27;;;10.70;;
25525;SDS011;13424;48.424;11.258;2024-03-17T07:00:56;15.13;;;9.82;;
25525;SDS011;13424;48.424;11.258;2024-03-17T07:03:30;14.77;;;10.70;;
25525;SDS011;13424;48.424;11.258;2024-03-17T07:06:00;15.90;;;10.95;;
25525;SDS011;13424;48.424;11.258;2024-03-17T07:08:29;17.92;;;10.77;;
25525;SDS011;13424;48.424;11.258;2024-03-17T07:11:06;20.27;;;12.23;;
25525;SDS011;13424;48.424;11.258;2024-03-17T07:13:34;16.25;;;11.50;;
25525;SDS011;13424;48.424;11.258;2024-03-17T07:16:03;14.48;;;9.98;;
25525;SDS011;13424;48.424;11.258;2024-03-17T07:18:35;20.27;;;10.30;;
25525;SDS011;13424;48.424;11.258;2024-03-17T07:21:03;16.42;;;10.45;;
25525;SDS011;13424;48.424;11.258;2024-03-17T07:23:30;18.08;;;11.38;;
25525;SDS011;13424;48.424;11.258;2024-03-17T07:25:59;15.05;;;9.75;;
25525;SDS011;13424;48.424;11.258;2024-03-17T07:28:27;13.73;;;10.20;;
25525;SDS011;13424;48.424;11.258;2024-03-17T07:30:55;14.90;;;10.45;;
25525;SDS011;13424;48.424;11.258;2024-03-17T07:33:23;18.52;;;9.25;;
25525;SDS011;13424;48.424;11.258;2024-03-17T07:35:54;14.93;;;9.15;;
25525;SDS011;13424;48.424;11.258;2024-03-17T07:38:29;16.17;;;9.40;;
25525;SDS011;13424;48.424;11.258;2024-03-17T07:43:34;16.70;;;9.73;;
25525;SDS011;13424;48.424;11.258;2024-03-17T07:46:10;26.17;;;12.85;;
25525;SDS011;13424;48.424;11.258;2024-03-17T07:48:38;22.58;;;12.40;;
25525;SDS011;13424;48.424;11.258;2024-03-17T07:51:08;18.38;;;11.32;;
25525;SDS011;13424;48.424;11.258;2024-03-17T07:53:39;18.33;;;11.68;;
25525;SDS011;13424;48.424;11.258;2024-03-17T07:56:08;16.75;;;11.40;;
25525;SDS011;13424;48.424;11.258;2024-03-17T07:58:40;21.38;;;10.73;;
25525;SDS011;13424;48.424;11.258;2024-03-17T08:01:13;19.73;;;12.82;;
25525;SDS011;13424;48.424;11.258;2024-03-17T08:03:44;20.17;;;11.25;;
25525;SDS011;13424;48.424;11.258;2024-03-17T08:06:11;15.87;;;10.37;;
25525;SDS011;13424;48.424;11.258;2024-03-17T08:08:37;16.20;;;11.15;;
25525;SDS011;13424;48.424;11.258;2024-03-17T08:11:03;16.83;;;10.23;;
25525;SDS011;13424;48.424;11.258;2024-03-17T08:13:30;18.13;;;11.20;;
25525;SDS011;13424;48.424;11.258;2024-03-17T08:16:01;16.60;;;11.25;;
25525;SDS011;13424;48.424;11.258;2024-03-17T08:18:38;15.13;;;10.95;;
25525;SDS011;13424;48.424;11.258;2024-03-17T08:21:05;14.82;;;9.90;;
25525;SDS011;13424;48.424;11.258;2024-03-17T08:23:34;14.70;;;9.77;;
25525;SDS011;13424;48.424;11.258;2024-03-17T08:26:11;18.25;;;11.45;;
25525;SDS011;13424;48.424;11.258;2024-03-17T08:28:37;16.25;;;9.35;;
25525;SDS011;13424;48.424;11.258;2024-03-17T08:31:03;18.08;;;10.73;;
25525;SDS011;13424;48.424;11.258;2024-03-17T08:33:30;16.70;;;11.38;;
25525;SDS011;13424;48.424;11.258;2024-03-17T08:36:04;16.73;;;9.88;;
25525;SDS011;13424;48.424;11.258;2024-03-17T08:38:34;16.33;;;10.23;;
25525;SDS011;13424;48.424;11.258;2024-03-17T08:41:06;16.27;;;10.65;;
25525;SDS011;13424;48.424;11.258;2024-03-17T08:43:34;13.18;;;9.02;;
25525;SDS011;13424;48.424;11.258;2024-03-17T08:46:07;14.05;;;9.70;;
25525;SDS011;13424;48.424;11.258;2024-03-17T08:48:38;13.02;;;9.93;;
25525;SDS011;13424;48.424;11.258;2024-03-17T08:51:07;17.75;;;8.18;;
25525;SDS011;13424;48.424;11.258;2024-03-17T08:53:34;17.60;;;10.75;;
25525;SDS011;13424;48.424;11.258;2024-03-17T08:56:04;13.52;;;9.70;;
25525;SDS011;13424;48.424;11.258;2024-03-17T08:58:31;11.38;;;8.52;;
25525;SDS011;13424;48.424;11.258;2024-03-17T09:00:57;12.40;;;9.07;;
25525;SDS011;13424;48.424;11.258;2024-03-17T09:03:23;13.35;;;9.23;;
25525;SDS011;13424;48.424;11.258;2024-03-17T09:05:52;13.95;;;8.95;;
25525;SDS011;13424;48.424;11.258;2024-03-17T09:08:23;11.13;;;9.30;;
25525;SDS011;13424;48.424;11.258;2024-03-17T09:10:52;14.05;;;9.90;;
25525;SDS011;13424;48.424;11.258;2024-03-17T09:13:24;14.05;;;9.75;;
25525;SDS011;13424;48.424;11.258;2024-03-17T09:18:23;13.80;;;10.48;;
25525;SDS011;13424;48.424;11.258;2024-03-17T09:20:59;15.40;;;10.05;;
25525;SDS011;13424;48.424;11.258;2024-03-17T09:23:28;14.15;;;10.40;;
25525;SDS011;13424;48.424;11.258;2024-03-17T09:26:02;13.23;;;9.70;;
25525;SDS011;13424;48.424;11.258;2024-03-17T09:28:38;11.82;;;9.15;;
25525;SDS011;13424;48.424;11.258;2024-03-17T09:31:04;10.90;;;8.52;;
25525;SDS011;13424;48.424;11.258;2024-03-17T09:33:33;15.55;;;9.55;;
25525;SDS011;13424;48.424;11.258;2024-03-17T09:36:05;12.48;;;9.60;;
25525;SDS011;13424;48.424;11.258;2024-03-17T09:38:36;16.38;;;9.25;;
25525;SDS011;13424;48.424;11.258;2024-03-17T09:41:03;12.70;;;8.27;;
25525;SDS011;13424;48.424;11.258;2024-03-17T09:43:35;13.52;;;9.50;;
25525;SDS011;13424;48.424;11.258;2024-03-17T09:46:04;12.88;;;8.35;;
25525;SDS011;13424;48.424;11.258;2024-03-17T09:48:32;11.98;;;8.23;;
25525;SDS011;13424;48.424;11.258;2024-03-17T09:51:00;11.73;;;7.78;;
25525;SDS011;13424;48.424;11.258;2024-03-17T09:53:29;16.70;;;8.95;;
25525;SDS011;13424;48.424;11.258;2024-03-17T09:58:39;11.05;;;6.75;;
25525;SDS011;13424;48.424;11.258;2024-03-17T10:01:05;8.32;;;6.38;;
25525;SDS011;13424;48.424;11.258;2024-03-17T10:03:47;9.25;;;6.75;;
25525;SDS011;13424;48.424;11.258;2024-03-17T10:06:18;7.50;;;6.15;;
25525;SDS011;13424;48.424;11.258;2024-03-17T10:08:48;7.38;;;6.57;;
25525;SDS011;13424;48.424;11.258;2024-03-17T10:11:34;8.23;;;5.68;;
25525;SDS011;13424;48.424;11.258;2024-03-17T10:14:03;7.93;;;6.40;;
25525;SDS011;13424;48.424;11.258;2024-03-17T10:16:37;10.30;;;6.47;;
25525;SDS011;13424;48.424;11.258;2024-03-17T10:19:11;9.18;;;6.63;;
25525;SDS011;13424;48.424;11.258;2024-03-17T10:21:47;8.82;;;6.10;;
25525;SDS011;13424;48.424;11.258;2024-03-17T10:24:14;9.00;;;6.63;;
25525;SDS011;13424;48.424;11.258;2024-03-17T10:29:20;8.38;;;5.90;;
25525;SDS011;13424;48.424;11.258;2024-03-17T10:31:59;7.00;;;5.57;;
25525;SDS011;13424;48.424;11.258;2024-03-17T10:34:30;9.57;;;5.90;;
25525;SDS011;13424;48.424;11.258;2024-03-17T10:37:18;8.02;;;6.13;;
25525;SDS011;13424;48.424;11.258;2024-03-17T10:39:51;11.27;;;7.47;;
25525;SDS011;13424;48.424;11.258;2024-03-17T10:42:25;9.88;;;6.35;;
25525;SDS011;13424;48.424;11.258;2024-03-17T10:44:54;7.82;;;6.10;;
25525;SDS011;13424;48.424;11.258;2024-03-17T10:47:27;9.68;;;5.78;;
25525;SDS011;13424;48.424;11.258;2024-03-17T10:49:55;6.78;;;6.00;;
25525;SDS011;13424;48.424;11.258;2024-03-17T10:52:22;7.80;;;5.85;;
25525;SDS011;13424;48.424;11.258;2024-03-17T10:54:54;9.40;;;5.78;;
25525;SDS011;13424;48.424;11.258;2024-03-17T10:57:45;7.57;;;5.95;;
25525;SDS011;13424;48.424;11.258;2024-03-17T11:00:16;9.43;;;5.63;;
25525;SDS011;13424;48.424;11.258;2024-03-17T11:02:57;6.10;;;5.30;;
25525;SDS011;13424;48.424;11.258;2024-03-17T11:05:27;8.68;;;6.13;;
25525;SDS011;13424;48.424;11.258;2024-03-17T11:07:55;7.50;;;5.80;;
25525;SDS011;13424;48.424;11.258;2024-03-17T11:10:34;6.85;;;5.38;;
25525;SDS011;13424;48.424;11.258;2024-03-17T11:13:02;8.02;;;5.82;;
25525;SDS011;13424;48.424;11.258;2024-03-17T11:21:00;6.40;;;4.93;;
25525;SDS011;13424;48.424;11.258;2024-03-17T11:24:00;7.43;;;4.68;;
25525;SDS011;13424;48.424;11.258;2024-03-17T11:28:59;7.60;;;5.32;;
25525;SDS011;13424;48.424;11.258;2024-03-17T11:31:41;7.82;;;5.65;;
25525;SDS011;13424;48.424;11.258;2024-03-17T11:34:30;7.15;;;4.80;;
25525;SDS011;13424;48.424;11.258;2024-03-17T11:37:00;7.45;;;5.72;;
25525;SDS011;13424;48.424;11.258;2024-03-17T11:39:53;9.73;;;4.78;;
25525;SDS011;13424;48.424;11.258;2024-03-17T11:42:25;5.70;;;4.72;;
25525;SDS011;13424;48.424;11.258;2024-03-17T11:45:04;6.03;;;4.30;;
25525;SDS011;13424;48.424;11.258;2024-03-17T11:47:35;7.40;;;4.50;;
25525;SDS011;13424;48.424;11.258;2024-03-17T11:50:07;5.47;;;3.63;;
25525;SDS011;13424;48.424;11.258;2024-03-17T11:52:37;7.80;;;4.18;;
25525;SDS011;13424;48.424;11.258;2024-03-17T11:55:12;4.53;;;3.90;;
25525;SDS011;13424;48.424;11.258;2024-03-17T11:57:44;8.57;;;4.40;;
25525;SDS011;13424;48.424;11.258;2024-03-17T12:00:23;5.68;;;4.15;;
25525;SDS011;13424;48.424;11.258;2024-03-17T12:02:50;5.60;;;3.75;;
25525;SDS011;13424;48.424;11.258;2024-03-17T12:05:16;6.10;;;4.38;;
25525;SDS011;13424;48.424;11.258;2024-03-17T12:07:42;7.00;;;4.18;;
25525;SDS011;13424;48.424;11.258;2024-03-17T12:10:10;6.65;;;3.75;;
25525;SDS011;13424;48.424;11.258;2024-03-17T12:12:39;5.50;;;4.03;;
25525;SDS011;13424;48.424;11.258;2024-03-17T12:15:18;6.95;;;3.85;;
25525;SDS011;13424;48.424;11.258;2024-03-17T12:17:45;6.05;;;3.75;;
25525;SDS011;13424;48.424;11.258;2024-03-17T12:20:19;4.80;;;3.97;;
25525;SDS011;13424;48.424;11.258;2024-03-17T12:22:47;5.43;;;4.35;;
25525;SDS011;13424;48.424;11.258;2024-03-17T12:25:20;8.82;;;4.22;;
25525;SDS011;13424;48.424;11.258;2024-03-17T12:27:51;7.20;;;4.35;;
25525;SDS011;13424;48.424;11.258;2024-03-17T12:30:17;7.32;;;4.53;;
25525;SDS011;13424;48.424;11.258;2024-03-17T12:32:44;6.70;;;4.38;;
25525;SDS011;13424;48.424;11.258;2024-03-17T12:35:15;5.68;;;4.25;;
25525;SDS011;13424;48.424;11.258;2024-03-17T12:37:45;4.40;;;3.67;;
25525;SDS011;13424;48.424;11.258;2024-03-17T12:40:19;5.00;;;3.65;;
25525;SDS011;13424;48.424;11.258;2024-03-17T12:42:48;5.28;;;3.65;;
25525;SDS011;13424;48.424;11.258;2024-03-17T12:45:19;5.43;;;4.05;;
25525;SDS011;13424;48.424;11.258;2024-03-17T12:47:47;6.00;;;4.00;;
25525;SDS011;13424;48.424;11.258;2024-03-17T12:50:15;7.88;;;3.97;;
25525;SDS011;13424;48.424;11.258;2024-03-17T12:52:51;7.65;;;4.22;;
25525;SDS011;13424;48.424;11.258;2024-03-17T12:55:20;6.25;;;3.85;;
25525;SDS011;13424;48.424;11.258;2024-03-17T12:58:07;4.85;;;3.45;;
25525;SDS011;13424;48.424;11.258;2024-03-17T13:01:05;7.10;;;4.47;;
25525;SDS011;13424;48.424;11.258;2024-03-17T13:06:00;4.47;;;3.88;;
25525;SDS011;13424;48.424;11.258;2024-03-17T13:08:37;7.43;;;4.55;;
25525;SDS011;13424;48.424;11.258;2024-03-17T13:11:03;5.93;;;4.00;;
25525;SDS011;13424;48.424;11.258;2024-03-17T13:13:29;5.05;;;3.60;;
25525;SDS011;13424;48.424;11.258;2024-03-17T13:15:55;7.07;;;4.63;;
25525;SDS011;13424;48.424;11.258;2024-03-17T13:18:21;7.10;;;4.30;;
25525;SDS011;13424;48.424;11.258;2024-03-17T13:20:48;5.43;;;3.92;;
25525;SDS011;13424;48.424;11.258;2024-03-17T13:23:19;6.10;;;4.05;;
25525;SDS011;13424;48.424;11.258;2024-03-17T13:25:49;5.55;;;2.90;;
25525;SDS011;13424;48.424;11.258;2024-03-17T13:28:16;6.32;;;3.20;;
25525;SDS011;13424;48.424;11.258;2024-03-17T13:30:42;6.38;;;4.70;;
25525;SDS011;13424;48.424;11.258;2024-03-17T13:33:09;4.35;;;3.30;;
25525;SDS011;13424;48.424;11.258;2024-03-17T13:35:38;3.15;;;2.85;;
25525;SDS011;13424;48.424;11.258;2024-03-17T13:38:06;5.78;;;3.17;;
25525;SDS011;13424;48.424;11.258;2024-03-17T13:40:37;5.45;;;2.88;;
25525;SDS011;13424;48.424;11.258;2024-03-17T13:43:05;3.08;;;2.78;;
25525;SDS011;13424;48.424;11.258;2024-03-17T13:45:38;4.78;;;3.17;;
25525;SDS011;13424;48.424;11.258;2024-03-17T13:48:06;4.65;;;3.20;;
25525;SDS011;13424;48.424;11.258;2024-03-17T13:50:36;5.90;;;3.15;;
25525;SDS011;13424;48.424;11.258;2024-03-17T13:53:04;5.43;;;3.80;;
25525;SDS011;13424;48.424;11.258;2024-03-17T13:55:30;7.07;;;3.22;;
25525;SDS011;13424;48.424;11.258;2024-03-17T13:57:57;5.15;;;3.65;;
25525;SDS011;13424;48.424;11.258;2024-03-17T14:00:29;4.75;;;3.33;;
25525;SDS011;13424;48.424;11.258;2024-03-17T14:02:57;8.70;;;4.00;;
25525;SDS011;13424;48.424;11.258;2024-03-17T14:05:24;6.72;;;3.65;;
25525;SDS011;13424;48.424;11.258;2024-03-17T14:07:53;4.18;;;3.38;;
25525;SDS011;13424;48.424;11.258;2024-03-17T14:10:22;5.18;;;3.22;;
25525;SDS011;13424;48.424;11.258;2024-03-17T14:12:50;7.97;;;3.40;;
25525;SDS011;13424;48.424;11.258;2024-03-17T14:15:16;9.40;;;3.65;;
25525;SDS011;13424;48.424;11.258;2024-03-17T14:17:46;7.80;;;3.40;;
25525;SDS011;13424;48.424;11.258;2024-03-17T14:22:44;3.58;;;3.28;;
25525;SDS011;13424;48.424;11.258;2024-03-17T14:25:18;8.10;;;3.88;;
25525;SDS011;13424;48.424;11.258;2024-03-17T14:27:45;5.47;;;4.40;;
25525;SDS011;13424;48.424;11.258;2024-03-17T14:30:16;4.55;;;3.50;;
25525;SDS011;13424;48.424;11.258;2024-03-17T14:32:44;5.95;;;3.67;;
25525;SDS011;13424;48.424;11.258;2024-03-17T14:35:16;4.75;;;3.70;;
25525;SDS011;13424;48.424;11.258;2024-03-17T14:37:45;6.32;;;3.80;;
25525;SDS011;13424;48.424;11.258;2024-03-17T14:40:17;3.83;;;3.13;;
25525;SDS011;13424;48.424;11.258;2024-03-17T14:42:49;4.00;;;3.50;;
25525;SDS011;13424;48.424;11.258;2024-03-17T14:45:18;9.02;;;4.07;;
25525;SDS011;13424;48.424;11.258;2024-03-17T14:47:45;5.68;;;3.80;;
25525;SDS011;13424;48.424;11.258;2024-03-17T14:50:11;6.85;;;3.50;;
25525;SDS011;13424;48.424;11.258;2024-03-17T14:52:38;8.68;;;4.13;;
25525;SDS011;13424;48.424;11.258;2024-03-17T14:55:09;5.47;;;3.90;;
25525;SDS011;13424;48.424;11.258;2024-03-17T14:57:37;4.85;;;4.10;;
25525;SDS011;13424;48.424;11.258;2024-03-17T15:00:09;6.25;;;4.32;;
25525;SDS011;13424;48.424;11.258;2024-03-17T15:02:44;6.63;;;3.63;;
25525;SDS011;13424;48.424;11.258;2024-03-17T15:05:15;6.72;;;4.10;;
25525;SDS011;13424;48.424;11.258;2024-03-17T15:07:47;8.07;;;4.38;;
25525;SDS011;13424;48.424;11.258;2024-03-17T15:10:13;5.57;;;4.20;;